Time;durP1;ratioP1;P1;durP2;ratioP2;P2;SDS_P1;SDS_P2;PMS_P1;PMS_P2;Temp;Humidity;BMP_temperature;BMP_pressure;BME280_temperature;BME280_humidity;BME280_pressure;Samples;Min_cycle;Max_cycle;Signal;HPM_P1;HPM_P2
2023/12/07 00:03:51;;;;;;;42.60;15.80;;;;;;;-11.69;93.64;102871.34;10440827;28;20033;-62
2023/12/07 00:08:53;;;;;;;42.20;16.55;;;;;;;-11.66;94.23;102873.81;10439666;28;20045;-62
2023/12/07 00:13:55;;;;;;;44.15;15.75;;;;;;;-11.67;94.31;102872.09;10439791;28;20037;-61
2023/12/07 00:18:58;;;;;;;40.40;14.80;;;;;;;-11.66;94.76;102872.03;10438120;28;20045;-61
2023/12/07 00:24:01;;;;;;;40.70;15.45;;;;;;;-11.67;94.49;102870.31;10439633;28;20040;-61
2023/12/07 00:29:03;;;;;;;41.67;15.48;;;;;;;-11.70;94.92;102869.63;10439507;28;20033;-61
2023/12/07 00:34:05;;;;;;;39.33;15.15;;;;;;;-11.69;94.77;102879.28;10434521;28;20064;-61
2023/12/07 00:39:08;;;;;;;44.08;15.55;;;;;;;-11.83;95.34;102892.44;10437170;28;20056;-60
2023/12/07 00:44:11;;;;;;;40.88;16.10;;;;;;;-11.93;95.53;102898.22;10439309;28;20045;-60
2023/12/07 00:49:13;;;;;;;52.08;17.10;;;;;;;-12.00;95.29;102901.25;10438914;28;20056;-60
2023/12/07 00:54:15;;;;;;;48.38;18.10;;;;;;;-12.03;95.29;102907.56;10435550;28;20040;-60
2023/12/07 00:59:18;;;;;;;46.63;16.33;;;;;;;-11.96;94.34;102898.38;10442851;28;20053;-60
2023/12/07 01:04:20;;;;;;;48.55;16.25;;;;;;;-12.07;94.25;102898.06;10438271;28;20040;-61
2023/12/07 01:09:22;;;;;;;53.10;16.98;;;;;;;-12.09;94.43;102897.31;10437767;28;20044;-61
2023/12/07 01:14:25;;;;;;;50.70;16.27;;;;;;;-12.05;95.08;102898.84;10437219;28;20044;-60
2023/12/07 01:19:27;;;;;;;41.83;16.10;;;;;;;-12.10;94.75;102895.59;10437741;28;20029;-60
2023/12/07 01:24:29;;;;;;;43.65;15.48;;;;;;;-12.13;94.70;102894.91;10436208;28;20041;-60
2023/12/07 01:29:32;;;;;;;42.92;16.08;;;;;;;-12.33;95.04;102903.81;10438865;28;20037;-61
2023/12/07 01:34:34;;;;;;;43.47;14.70;;;;;;;-12.47;94.55;102896.63;10437132;28;20041;-61
2023/12/07 01:39:37;;;;;;;44.72;16.27;;;;;;;-12.59;94.50;102908.66;10436713;28;20034;-61
2023/12/07 01:44:39;;;;;;;43.22;14.80;;;;;;;-12.70;94.42;102913.59;10436134;28;20041;-61
2023/12/07 01:49:42;;;;;;;59.90;18.55;;;;;;;-12.72;93.78;102925.19;10435148;28;20037;-60
2023/12/07 01:54:44;;;;;;;38.40;14.38;;;;;;;-12.89;94.29;102932.13;10438110;28;20076;-60
2023/12/07 01:59:46;;;;;;;43.30;13.35;;;;;;;-12.96;93.92;102924.59;10444162;28;20726;-61
2023/12/07 02:04:49;;;;;;;37.85;13.48;;;;;;;-13.10;92.72;102928.72;10444189;28;20037;-60
2023/12/07 02:09:52;;;;;;;36.25;12.90;;;;;;;-13.19;92.59;102929.22;10445785;28;20041;-61
2023/12/07 02:14:54;;;;;;;28.35;11.88;;;;;;;-13.14;92.06;102931.59;10443905;28;20048;-61
2023/12/07 02:20:23;;;;;;;33.08;11.68;;;;;;;-13.20;92.04;102935.38;10443443;28;20045;-61
2023/12/07 02:25:37;;;;;;;28.00;11.43;;;;;;;-13.24;91.32;102931.19;10444954;28;20029;-61
2023/12/07 02:30:39;;;;;;;30.17;12.30;;;;;;;-13.44;90.64;102942.66;10444366;28;20052;-61
2023/12/07 02:35:42;;;;;;;26.98;12.43;;;;;;;-13.67;91.15;102952.56;10444149;28;20037;-61
2023/12/07 02:40:46;;;;;;;28.00;10.88;;;;;;;-13.86;90.00;102949.88;10444985;28;20072;-61
2023/12/07 02:45:48;;;;;;;24.95;9.50;;;;;;;-13.80;90.00;102950.44;10442181;28;20544;-61
2023/12/07 02:50:50;;;;;;;24.02;9.68;;;;;;;-13.85;89.71;102946.31;10443006;28;20041;-61
2023/12/07 02:55:53;;;;;;;27.15;10.48;;;;;;;-13.78;89.53;102959.16;10452021;28;20076;-60
2023/12/07 03:00:55;;;;;;;24.23;11.07;;;;;;;-13.83;89.30;102957.66;10441816;28;20036;-61
2023/12/07 03:05:57;;;;;;;22.55;10.25;;;;;;;-13.99;88.20;102959.22;10419112;28;20064;-61
2023/12/07 03:11:00;;;;;;;22.38;9.20;;;;;;;-14.02;88.55;102961.09;10440133;28;20046;-61
2023/12/07 03:16:07;;;;;;;20.55;9.73;;;;;;;-14.04;88.79;102967.34;10426489;28;20536;-60
2023/12/07 03:21:09;;;;;;;22.40;10.10;;;;;;;-14.16;87.62;102976.63;10437322;28;20041;-61
2023/12/07 03:26:11;;;;;;;20.20;9.23;;;;;;;-14.10;88.52;102983.41;10438487;28;20053;-60
2023/12/07 03:31:14;;;;;;;20.25;9.30;;;;;;;-14.11;88.07;102984.34;10441146;28;20041;-60
2023/12/07 03:36:16;;;;;;;21.00;9.98;;;;;;;-14.19;87.39;102986.44;10440273;28;20041;-60
2023/12/07 03:41:19;;;;;;;17.42;8.00;;;;;;;-14.33;86.71;102984.38;10439719;28;20045;-61
2023/12/07 03:46:22;;;;;;;18.83;8.30;;;;;;;-14.40;86.08;102989.06;10445500;28;20595;-61
2023/12/07 03:51:25;;;;;;;9.63;4.90;;;;;;;-14.47;85.97;102998.16;10439696;28;20041;-61
2023/12/07 03:56:28;;;;;;;12.88;5.72;;;;;;;-14.64;86.24;103004.09;10439528;28;20048;-61
2023/12/07 04:01:31;;;;;;;13.57;5.90;;;;;;;-14.67;86.52;103014.75;10437063;28;20033;-61
2023/12/07 04:06:33;;;;;;;13.27;5.72;;;;;;;-14.78;86.46;103008.19;10439387;28;20037;-61
2023/12/07 04:11:35;;;;;;;13.38;5.78;;;;;;;-15.21;85.36;103030.91;10442332;28;20056;-61
2023/12/07 04:16:37;;;;;;;15.40;6.20;;;;;;;-15.35;85.55;103020.00;10446621;28;20033;-62
2023/12/07 04:21:40;;;;;;;13.40;5.70;;;;;;;-15.31;86.09;103025.09;10428998;28;20488;-61
2023/12/07 04:26:42;;;;;;;14.25;6.57;;;;;;;-15.33;86.38;103016.41;10433337;28;20034;-60
2023/12/07 04:31:44;;;;;;;13.18;5.80;;;;;;;-15.14;86.74;103024.47;10465665;28;20044;-61
2023/12/07 04:36:47;;;;;;;13.98;5.88;;;;;;;-15.15;86.94;103025.38;10438953;28;20132;-63
2023/12/07 04:41:49;;;;;;;15.63;5.38;;;;;;;-15.06;86.30;103019.78;10434151;28;20065;-61
2023/12/07 04:46:51;;;;;;;11.50;4.95;;;;;;;-15.06;86.46;103034.75;10422292;28;20052;-61
2023/12/07 04:51:54;;;;;;;11.75;5.47;;;;;;;-15.12;85.52;103033.16;10433516;28;20037;-61
2023/12/07 04:56:56;;;;;;;11.13;5.60;;;;;;;-15.20;85.58;103042.28;10437824;28;20421;-61
2023/12/07 05:01:58;;;;;;;11.27;5.75;;;;;;;-15.27;85.81;103036.34;10438252;28;20041;-61
2023/12/07 05:07:03;;;;;;;13.57;5.40;;;;;;;-15.35;85.75;103041.06;10436241;28;20045;-61
2023/12/07 05:12:07;;;;;;;9.95;4.90;;;;;;;-15.42;84.99;103042.22;10435059;28;20041;-61
2023/12/07 05:17:09;;;;;;;10.38;4.97;;;;;;;-15.47;85.33;103044.13;10439413;28;20424;-60
2023/12/07 05:22:11;;;;;;;10.63;5.05;;;;;;;-15.56;85.79;103051.44;10433944;28;20037;-60
2023/12/07 05:27:14;;;;;;;9.80;4.78;;;;;;;-15.62;85.89;103051.69;10435402;28;20060;-60
2023/12/07 05:32:17;;;;;;;13.27;5.95;;;;;;;-15.70;85.65;103053.72;10438000;28;20033;-60
2023/12/07 05:37:19;;;;;;;13.45;6.40;;;;;;;-15.81;85.15;103060.25;10443375;28;20037;-61
2023/12/07 05:42:22;;;;;;;12.82;5.57;;;;;;;-15.86;85.49;103063.91;10440108;28;20048;-61
2023/12/07 05:47:24;;;;;;;9.10;4.28;;;;;;;-15.80;85.93;103067.22;10429223;28;20033;-60
2023/12/07 05:52:27;;;;;;;17.60;4.57;;;;;;;-15.88;86.04;103070.13;10441260;28;20041;-61
2023/12/07 05:57:30;;;;;;;9.82;4.63;;;;;;;-15.87;85.58;103058.69;10441893;28;20037;-61
2023/12/07 06:02:33;;;;;;;10.52;5.53;;;;;;;-15.88;85.90;103073.63;10445486;28;20068;-61
2023/12/07 06:07:35;;;;;;;9.02;5.13;;;;;;;-15.85;85.33;103084.03;10444425;28;20067;-61
2023/12/07 06:12:38;;;;;;;10.07;4.82;;;;;;;-15.82;85.43;103090.09;10444738;28;20049;-61
2023/12/07 06:17:40;;;;;;;8.93;5.05;;;;;;;-15.86;85.55;103091.97;10443113;28;20037;-61
2023/12/07 06:22:42;;;;;;;16.40;6.13;;;;;;;-15.85;85.48;103106.84;10441264;28;20037;-61
2023/12/07 06:27:45;;;;;;;11.75;5.75;;;;;;;-15.86;86.22;103091.97;10441825;28;20044;-60
2023/12/07 06:32:47;;;;;;;19.63;6.53;;;;;;;-15.79;85.97;103101.41;10443777;28;20076;-61
2023/12/07 06:37:50;;;;;;;17.13;7.30;;;;;;;-15.74;86.43;103102.09;10443211;28;20041;-60
2023/12/07 06:42:52;;;;;;;7.07;4.32;;;;;;;-15.75;85.85;103108.28;10443129;28;20053;-61
2023/12/07 06:47:54;;;;;;;17.98;7.38;;;;;;;-15.74;86.17;103104.72;10443834;28;20044;-61
2023/12/07 06:52:56;;;;;;;12.30;6.25;;;;;;;-15.75;85.65;103104.78;10440410;28;20045;-60
2023/12/07 06:57:59;;;;;;;15.30;6.43;;;;;;;-15.83;86.24;103112.06;10440612;28;20060;-60
2023/12/07 07:03:02;;;;;;;13.63;5.82;;;;;;;-15.87;85.76;103106.03;10441839;28;20045;-61
2023/12/07 07:08:06;;;;;;;12.38;6.50;;;;;;;-15.87;86.38;103113.94;10442452;28;20041;-62
2023/12/07 07:13:08;;;;;;;14.68;7.15;;;;;;;-15.79;86.50;103106.66;10442619;28;20044;-61
2023/12/07 07:18:11;;;;;;;16.38;6.68;;;;;;;-15.76;86.65;103110.94;10430334;28;20033;-61
2023/12/07 07:23:13;;;;;;;13.02;6.72;;;;;;;-15.64;86.85;103110.53;10440690;28;20612;-61
2023/12/07 07:28:15;;;;;;;15.90;6.90;;;;;;;-15.57;86.40;103122.53;10440599;28;20046;-61
2023/12/07 07:33:17;;;;;;;15.40;7.25;;;;;;;-15.54;86.88;103123.28;10444056;28;20444;-61
2023/12/07 07:38:20;;;;;;;17.13;7.05;;;;;;;-15.52;87.07;103131.13;10448304;28;20041;-61
2023/12/07 07:43:23;;;;;;;15.60;6.32;;;;;;;-15.55;86.89;103136.50;10444458;28;20049;-61
2023/12/07 07:48:25;;;;;;;17.75;8.27;;;;;;;-15.50;86.37;103131.94;10440890;28;20037;-62
2023/12/07 07:53:28;;;;;;;18.23;7.97;;;;;;;-15.48;86.67;103132.75;10438395;28;20069;-61
2023/12/07 07:58:31;;;;;;;21.05;8.50;;;;;;;-15.45;86.79;103139.66;10439255;28;20041;-63
2023/12/07 08:03:33;;;;;;;19.45;7.78;;;;;;;-15.55;87.34;103134.72;10434093;28;20544;-63
2023/12/07 08:08:35;;;;;;;17.42;7.10;;;;;;;-15.41;86.99;103141.31;10428394;28;20429;-62
2023/12/07 08:13:38;;;;;;;19.17;6.47;;;;;;;-15.37;87.25;103142.91;10435850;28;20044;-62
2023/12/07 08:18:41;;;;;;;18.42;7.72;;;;;;;-15.29;86.74;103147.00;10426768;28;20033;-62
2023/12/07 08:23:43;;;;;;;16.88;7.38;;;;;;;-15.25;86.59;103142.50;10440322;28;20038;-62
2023/12/07 08:28:46;;;;;;;9.27;5.32;;;;;;;-15.33;86.39;103144.53;10437904;28;20425;-62
2023/12/07 08:33:52;;;;;;;18.95;8.00;;;;;;;-15.19;86.65;103144.06;10437677;28;20064;-62
2023/12/07 08:38:55;;;;;;;15.63;6.22;;;;;;;-15.00;86.25;103153.88;10419424;28;20037;-62
2023/12/07 08:43:57;;;;;;;24.40;8.00;;;;;;;-15.15;85.32;103154.41;10439246;28;20050;-62
2023/12/07 08:49:01;;;;;;;20.98;8.13;;;;;;;-15.23;85.98;103167.00;10438780;28;20436;-62
2023/12/07 08:54:05;;;;;;;17.50;6.95;;;;;;;-15.17;85.48;103158.88;10439883;28;20539;-62
2023/12/07 08:59:07;;;;;;;12.38;5.72;;;;;;;-15.12;85.60;103169.25;10439566;28;20038;-62
2023/12/07 09:04:10;;;;;;;21.52;8.57;;;;;;;-15.11;86.09;103174.44;10437623;28;20485;-62
2023/12/07 09:09:12;;;;;;;14.77;7.45;;;;;;;-14.87;86.31;103166.63;10431211;28;20528;-62
2023/12/07 09:14:14;;;;;;;16.83;8.05;;;;;;;-14.79;86.43;103172.47;10424565;28;20038;-62
2023/12/07 09:19:17;;;;;;;17.10;7.60;;;;;;;-14.75;85.77;103168.78;10436592;28;20037;-61
2023/12/07 09:24:19;;;;;;;16.48;8.55;;;;;;;-14.73;86.06;103174.88;10435087;28;20603;-62
2023/12/07 09:29:22;;;;;;;12.52;6.63;;;;;;;-14.83;86.15;103174.34;10436917;28;20043;-62
2023/12/07 09:34:25;;;;;;;16.45;7.32;;;;;;;-14.83;86.61;103189.28;10436708;28;20040;-63
2023/12/07 09:39:27;;;;;;;13.93;6.05;;;;;;;-14.77;85.79;103178.53;10436069;28;20540;-62
2023/12/07 09:44:29;;;;;;;16.08;7.97;;;;;;;-14.67;86.35;103175.50;10424625;28;20050;-62
2023/12/07 09:49:32;;;;;;;20.85;8.50;;;;;;;-14.59;86.30;103179.63;10428407;28;20033;-61
2023/12/07 09:54:37;;;;;;;17.27;8.80;;;;;;;-14.65;86.15;103175.47;10433203;28;20056;-62
2023/12/07 09:59:40;;;;;;;17.88;8.32;;;;;;;-14.66;86.45;103171.97;10428082;28;20040;-61
2023/12/07 10:04:43;;;;;;;12.63;6.35;;;;;;;-14.70;86.69;103180.03;10433893;28;20037;-61
2023/12/07 10:09:45;;;;;;;12.10;5.75;;;;;;;-14.66;87.54;103169.31;10433300;28;20038;-60
2023/12/07 10:14:48;;;;;;;17.58;7.63;;;;;;;-14.59;87.07;103174.34;10427157;28;20069;-61
2023/12/07 10:20:08;;;;;;;14.70;6.65;;;;;;;-14.51;86.28;103178.44;10441127;28;20041;-61
2023/12/07 10:25:11;;;;;;;9.55;5.15;;;;;;;-14.42;86.73;103164.88;10431152;28;20048;-62
2023/12/07 10:30:14;;;;;;;14.05;6.30;;;;;;;-14.38;86.13;103163.88;10424842;28;20084;-63
2023/12/07 10:35:18;;;;;;;12.88;6.97;;;;;;;-14.52;86.03;103173.22;10434991;28;20048;-62
2023/12/07 10:40:20;;;;;;;10.70;6.30;;;;;;;-14.51;86.11;103167.91;10439518;28;20056;-62
2023/12/07 10:45:25;;;;;;;15.63;6.60;;;;;;;-14.53;86.44;103172.38;10442490;28;20053;-62
2023/12/07 10:50:31;;;;;;;14.25;5.90;;;;;;;-14.53;86.52;103177.66;10443235;28;20033;-61
2023/12/07 10:55:41;;;;;;;19.65;5.60;;;;;;;-14.52;86.92;103174.09;10445730;28;20025;-61
2023/12/07 11:00:47;;;;;;;15.98;7.55;;;;;;;-14.51;86.44;103181.09;10443800;28;20428;-62
2023/12/07 11:05:50;;;;;;;17.55;6.53;;;;;;;-14.56;86.87;103188.31;10438445;28;20037;-61
2023/12/07 11:11:20;;;;;;;11.38;5.93;;;;;;;-14.57;86.78;103189.22;10433796;28;20520;-61
2023/12/07 11:16:35;;;;;;;14.00;6.47;;;;;;;-14.63;86.78;103192.94;10442712;28;20056;-61
2023/12/07 11:21:37;;;;;;;14.52;7.05;;;;;;;-14.71;86.46;103197.63;10440914;28;20414;-62
2023/12/07 11:26:42;;;;;;;14.20;5.95;;;;;;;-14.74;86.55;103192.47;10445982;28;20044;-62
2023/12/07 11:31:45;;;;;;;14.98;6.93;;;;;;;-14.84;86.08;103192.84;10437108;28;20537;-62
2023/12/07 11:36:47;;;;;;;16.08;7.00;;;;;;;-14.88;85.72;103178.06;10443940;28;20044;-62
2023/12/07 11:41:51;;;;;;;11.00;6.65;;;;;;;-14.90;85.69;103187.81;10460811;28;20504;-62
2023/12/07 11:46:53;;;;;;;8.18;5.03;;;;;;;-14.79;85.71;103173.31;10435658;28;20417;-61
2023/12/07 11:51:56;;;;;;;12.32;6.53;;;;;;;-14.70;85.45;103180.03;10435871;28;20120;-61
2023/12/07 11:56:58;;;;;;;14.27;7.28;;;;;;;-14.76;85.60;103190.78;10437863;28;20037;-61
2023/12/07 12:02:02;;;;;;;12.27;6.50;;;;;;;-14.70;85.98;103170.34;10438639;28;20099;-62
2023/12/07 12:07:05;;;;;;;13.80;6.20;;;;;;;-14.73;86.20;103173.13;10439978;28;20037;-62
2023/12/07 12:12:07;;;;;;;12.32;6.72;;;;;;;-14.84;85.73;103171.78;10436570;28;20037;-62
2023/12/07 12:17:10;;;;;;;10.32;6.05;;;;;;;-14.98;86.17;103177.53;10454460;28;20041;-62
2023/12/07 12:22:12;;;;;;;14.00;6.32;;;;;;;-15.11;86.12;103184.13;10441739;28;20037;-62
2023/12/07 12:27:16;;;;;;;6.03;2.75;;;;;;;-15.27;86.15;103178.53;10436704;28;20056;-62
2023/12/07 12:32:18;;;;;;;12.90;5.43;;;;;;;-15.30;86.05;103174.22;10431996;28;20038;-63
2023/12/07 12:37:20;;;;;;;11.43;5.97;;;;;;;-15.31;86.21;103167.25;10441135;28;20038;-63
2023/12/07 12:42:24;;;;;;;10.98;6.10;;;;;;;-15.29;87.05;103177.72;10429246;28;20045;-61
2023/12/07 12:47:26;;;;;;;11.30;6.43;;;;;;;-15.27;85.82;103174.16;10434827;28;20060;-62
2023/12/07 12:52:30;;;;;;;12.60;6.78;;;;;;;-15.28;86.55;103180.28;10421144;28;20038;-62
2023/12/07 12:57:36;;;;;;;12.70;5.68;;;;;;;-15.26;86.95;103169.75;10430122;28;20041;-64
2023/12/07 13:02:38;;;;;;;9.23;4.90;;;;;;;-15.24;87.34;103171.41;10425075;28;20040;-61
2023/12/07 13:07:40;;;;;;;10.23;5.45;;;;;;;-15.29;86.75;103180.34;10437199;28;20049;-60
2023/12/07 13:12:42;;;;;;;7.90;4.93;;;;;;;-15.37;87.41;103172.72;10435387;28;20030;-61
2023/12/07 13:17:45;;;;;;;11.32;3.70;;;;;;;-15.43;86.91;103172.09;10436364;28;20524;-61
2023/12/07 13:22:47;;;;;;;9.40;4.57;;;;;;;-15.49;86.76;103174.91;10434838;28;20042;-60
2023/12/07 13:27:49;;;;;;;6.05;5.00;;;;;;;-15.51;87.50;103172.31;10435553;28;20046;-61
2023/12/07 13:32:52;;;;;;;9.32;4.35;;;;;;;-15.50;87.63;103176.69;10428843;28;20051;-62
2023/12/07 13:37:54;;;;;;;11.98;5.70;;;;;;;-15.50;87.59;103179.31;10434102;28;20045;-62
2023/12/07 13:42:56;;;;;;;11.18;5.72;;;;;;;-15.47;87.82;103167.81;10433488;28;20045;-62
2023/12/07 13:47:58;;;;;;;16.23;5.68;;;;;;;-15.51;87.71;103171.47;10429039;28;20048;-63
2023/12/07 13:53:01;;;;;;;16.45;6.63;;;;;;;-15.45;87.61;103166.00;10430596;28;20033;-63
2023/12/07 13:58:03;;;;;;;9.05;4.63;;;;;;;-15.57;87.93;103176.03;10437836;28;20033;-63
2023/12/07 14:03:06;;;;;;;11.57;6.38;;;;;;;-15.46;88.09;103186.19;10449549;28;20535;-63
2023/12/07 14:08:09;;;;;;;7.47;5.45;;;;;;;-15.47;87.35;103180.97;10451242;28;20045;-63
2023/12/07 14:13:11;;;;;;;12.23;5.90;;;;;;;-15.42;87.09;103182.56;10443954;28;20038;-62
2023/12/07 14:18:13;;;;;;;11.10;5.75;;;;;;;-15.46;87.36;103183.56;10446654;28;20033;-62
2023/12/07 14:23:16;;;;;;;8.52;4.63;;;;;;;-15.48;87.32;103189.78;10436146;28;20575;-61
2023/12/07 14:28:18;;;;;;;8.15;4.55;;;;;;;-15.45;88.03;103192.31;10438528;28;20076;-62
2023/12/07 14:33:26;;;;;;;14.13;6.82;;;;;;;-15.42;88.05;103197.50;10429453;28;20037;-64
2023/12/07 14:38:29;;;;;;;13.57;7.57;;;;;;;-15.37;87.57;103185.03;10435437;28;20099;-62
2023/12/07 14:43:32;;;;;;;12.98;5.50;;;;;;;-15.31;87.18;103187.44;10446696;28;20563;-62
2023/12/07 14:48:37;;;;;;;10.57;5.55;;;;;;;-15.30;87.86;103199.69;10439695;28;20041;-62
2023/12/07 14:53:39;;;;;;;8.10;4.55;;;;;;;-15.34;87.87;103200.72;10425333;28;20037;-61
2023/12/07 14:58:41;;;;;;;14.60;6.45;;;;;;;-15.37;87.71;103201.69;10439639;28;20041;-61
2023/12/07 15:03:45;;;;;;;16.10;6.10;;;;;;;-15.41;88.01;103207.13;10440911;28;20436;-61
2023/12/07 15:08:47;;;;;;;10.85;5.90;;;;;;;-15.53;87.07;103211.00;10444211;28;20437;-62
2023/12/07 15:13:51;;;;;;;10.52;5.78;;;;;;;-15.53;88.31;103218.88;10445317;28;20045;-61
2023/12/07 15:18:53;;;;;;;14.85;6.82;;;;;;;-15.63;87.96;103226.25;10445090;28;20513;-61
2023/12/07 15:23:55;;;;;;;8.30;5.65;;;;;;;-15.71;87.83;103237.94;10426563;28;20045;-62
2023/12/07 15:28:58;;;;;;;14.05;7.15;;;;;;;-15.77;87.40;103240.75;10422466;28;20529;-61
2023/12/07 15:34:00;;;;;;;5.63;4.20;;;;;;;-15.80;87.70;103243.47;10438483;28;20044;-61
2023/12/07 15:39:03;;;;;;;9.68;5.32;;;;;;;-15.83;87.51;103239.16;10441398;28;20073;-61
2023/12/07 15:44:05;;;;;;;12.40;6.38;;;;;;;-15.77;87.75;103232.88;10439084;28;20046;-62
2023/12/07 15:49:07;;;;;;;12.02;6.40;;;;;;;-15.73;87.32;103229.22;10439879;28;20037;-61
2023/12/07 15:54:10;;;;;;;15.23;7.07;;;;;;;-15.71;86.65;103244.06;10444575;28;20424;-62
2023/12/07 15:59:12;;;;;;;8.52;4.40;;;;;;;-15.72;86.96;103238.84;10441748;28;20037;-61
2023/12/07 16:04:18;;;;;;;14.10;6.43;;;;;;;-15.74;86.74;103243.28;10438483;28;20045;-62
2023/12/07 16:09:20;;;;;;;8.68;4.00;;;;;;;-15.79;86.60;103246.06;10442031;28;20045;-62
2023/12/07 16:14:23;;;;;;;6.90;3.67;;;;;;;-15.84;86.23;103240.06;10441714;28;20049;-63
2023/12/07 16:19:29;;;;;;;6.40;1.63;;;;;;;-15.92;87.07;103247.34;10443241;28;20509;-63
2023/12/07 16:24:32;;;;;;;10.85;4.40;;;;;;;-15.84;86.33;103234.81;10440536;28;20555;-61
2023/12/07 16:29:34;;;;;;;13.68;5.63;;;;;;;-15.81;86.73;103232.09;10442629;28;20048;-62
2023/12/07 16:34:37;;;;;;;9.32;4.13;;;;;;;-15.82;87.10;103227.72;10435235;28;20038;-63
2023/12/07 16:39:41;;;;;;;9.93;5.88;;;;;;;-15.75;86.60;103237.19;10434297;28;20037;-63
2023/12/07 16:44:44;;;;;;;8.80;4.65;;;;;;;-15.76;86.85;103226.69;10432526;28;20050;-63
2023/12/07 16:49:46;;;;;;;7.03;3.63;;;;;;;-15.85;87.00;103220.81;10440304;28;20041;-63
2023/12/07 16:54:49;;;;;;;12.60;5.60;;;;;;;-15.84;86.79;103229.56;10437141;28;20033;-62
2023/12/07 16:59:51;;;;;;;8.65;4.22;;;;;;;-15.92;87.17;103234.19;10426146;28;20056;-70
2023/12/07 17:04:54;;;;;;;9.75;5.97;;;;;;;-15.92;86.78;103242.09;10433703;28;20041;-66
2023/12/07 17:09:57;;;;;;;12.20;5.20;;;;;;;-15.70;86.50;103237.03;10437877;28;20033;-66
2023/12/07 17:14:59;;;;;;;11.80;4.95;;;;;;;-15.73;85.99;103247.66;10428599;28;20041;-65
2023/12/07 17:20:03;;;;;;;6.15;3.53;;;;;;;-15.89;85.81;103242.84;10435865;28;20041;-67
2023/12/07 17:25:06;;;;;;;4.35;2.85;;;;;;;-15.85;86.45;103233.09;10437838;28;20581;-62
2023/12/07 17:30:09;;;;;;;5.45;3.72;;;;;;;-15.82;85.71;103240.03;10427414;28;20038;-63
2023/12/07 17:35:11;;;;;;;3.47;2.75;;;;;;;-15.87;85.76;103240.16;10426064;28;20045;-62
2023/12/07 17:40:14;;;;;;;10.40;4.25;;;;;;;-15.82;85.76;103251.41;10434011;28;20041;-62
2023/12/07 17:45:16;;;;;;;6.05;3.88;;;;;;;-15.83;85.70;103244.41;10431178;28;20053;-64
2023/12/07 17:50:19;;;;;;;12.93;5.22;;;;;;;-15.76;86.05;103253.00;10433385;28;20029;-64
2023/12/07 17:55:22;;;;;;;10.57;5.43;;;;;;;-15.64;85.92;103242.94;10433077;28;20040;-62
2023/12/07 18:00:25;;;;;;;17.17;5.35;;;;;;;-15.48;85.89;103243.28;10429009;28;20041;-63
2023/12/07 18:05:28;;;;;;;14.27;5.80;;;;;;;-15.51;86.10;103246.00;10432936;28;20044;-64
2023/12/07 18:10:31;;;;;;;8.88;4.30;;;;;;;-15.34;85.67;103250.72;10437366;28;20048;-62
2023/12/07 18:15:33;;;;;;;10.30;4.65;;;;;;;-15.30;85.20;103247.94;10432776;28;20037;-62
2023/12/07 18:20:36;;;;;;;18.05;9.27;;;;;;;-15.27;85.79;103246.97;10432036;28;20040;-64
2023/12/07 18:25:38;;;;;;;17.55;9.63;;;;;;;-15.16;86.52;103258.03;10432211;28;20030;-62
2023/12/07 18:30:43;;;;;;;15.30;8.13;;;;;;;-15.05;86.05;103258.53;10430302;28;20037;-62
2023/12/07 18:35:45;;;;;;;18.92;9.70;;;;;;;-14.80;86.27;103260.31;10425884;28;20045;-62
2023/12/07 18:40:48;;;;;;;17.27;9.30;;;;;;;-14.86;85.97;103257.91;10437590;28;20033;-62
2023/12/07 18:45:54;;;;;;;15.93;9.18;;;;;;;-14.81;85.34;103259.47;10440194;28;20061;-61
2023/12/07 18:51:01;;;;;;;19.17;9.77;;;;;;;-14.94;85.49;103250.25;10430384;28;20044;-61
2023/12/07 18:56:05;;;;;;;19.92;10.35;;;;;;;-14.80;85.15;103248.00;10435810;28;20056;-62
2023/12/07 19:01:07;;;;;;;16.95;9.50;;;;;;;-14.84;85.67;103246.41;10437480;28;20041;-63
2023/12/07 19:06:12;;;;;;;19.02;9.55;;;;;;;-14.81;85.40;103256.81;10441427;28;20054;-62
2023/12/07 19:11:15;;;;;;;18.65;9.48;;;;;;;-14.87;85.31;103254.41;10441093;28;20571;-63
2023/12/07 19:16:19;;;;;;;19.20;10.57;;;;;;;-14.67;84.89;103259.00;10426660;28;20037;-61
2023/12/07 19:21:22;;;;;;;19.20;9.98;;;;;;;-14.67;85.02;103259.00;10423632;28;20041;-61
2023/12/07 19:26:24;;;;;;;19.58;9.93;;;;;;;-14.67;85.72;103253.72;10436016;28;20480;-61
2023/12/07 19:31:27;;;;;;;18.80;11.00;;;;;;;-14.80;85.14;103257.69;10436228;28;20040;-61
2023/12/07 19:36:29;;;;;;;17.92;10.02;;;;;;;-14.86;85.27;103250.88;10442782;28;20025;-63
2023/12/07 19:41:33;;;;;;;21.55;11.38;;;;;;;-14.73;85.47;103253.94;10439430;28;20044;-61
2023/12/07 19:46:35;;;;;;;18.20;9.65;;;;;;;-14.71;84.96;103255.59;10442946;28;20026;-61
2023/12/07 19:51:37;;;;;;;18.60;9.80;;;;;;;-14.84;85.89;103254.31;10438414;28;20033;-63
2023/12/07 19:56:40;;;;;;;20.88;10.18;;;;;;;-15.03;84.62;103261.97;10427819;28;20088;-61
2023/12/07 20:01:44;;;;;;;21.85;10.90;;;;;;;-15.13;84.46;103257.06;10437938;28;20648;-61
2023/12/07 20:06:47;;;;;;;19.10;10.45;;;;;;;-15.08;84.76;103263.06;10436939;28;20041;-62
2023/12/07 20:11:50;;;;;;;18.50;10.40;;;;;;;-15.18;85.08;103274.78;10431728;28;20037;-61
2023/12/07 20:16:53;;;;;;;20.88;10.63;;;;;;;-15.35;85.17;103272.72;10430322;28;20532;-61
2023/12/07 20:21:56;;;;;;;18.83;9.43;;;;;;;-15.40;84.67;103258.84;10430189;28;20056;-61
2023/12/07 20:26:59;;;;;;;18.75;10.88;;;;;;;-15.44;84.28;103263.34;10445586;28;20524;-62
2023/12/07 20:32:02;;;;;;;19.05;9.52;;;;;;;-15.67;84.96;103257.97;10437407;28;20038;-62
2023/12/07 20:37:05;;;;;;;20.00;9.75;;;;;;;-15.68;84.63;103262.38;10439953;28;20033;-62
2023/12/07 20:42:07;;;;;;;16.10;9.43;;;;;;;-15.70;84.75;103261.56;10432350;28;20053;-63
2023/12/07 20:47:09;;;;;;;16.00;8.68;;;;;;;-15.68;84.57;103270.25;10439933;28;20044;-61
2023/12/07 20:52:11;;;;;;;18.13;8.95;;;;;;;-15.75;85.25;103274.00;10427478;28;20057;-60
2023/12/07 20:57:14;;;;;;;17.65;10.68;;;;;;;-15.85;85.18;103276.03;10431958;28;20509;-60
2023/12/07 21:02:16;;;;;;;17.77;8.90;;;;;;;-15.94;84.41;103271.06;10435150;28;20524;-63
2023/12/07 21:07:18;;;;;;;17.35;10.05;;;;;;;-15.92;85.01;103287.66;10437709;28;20055;-61
2023/12/07 21:12:21;;;;;;;18.83;9.20;;;;;;;-15.97;85.22;103278.16;10413640;28;20059;-60
2023/12/07 21:17:24;;;;;;;16.08;9.73;;;;;;;-15.97;85.26;103272.91;10435010;28;20042;-61
2023/12/07 21:22:26;;;;;;;16.52;9.38;;;;;;;-15.90;85.00;103274.47;10440524;28;20049;-61
2023/12/07 21:27:29;;;;;;;10.05;3.83;;;;;;;-15.95;84.76;103279.00;10434250;28;20041;-61
2023/12/07 21:32:31;;;;;;;14.20;6.60;;;;;;;-16.03;84.44;103286.25;10438095;28;20056;-62
2023/12/07 21:37:33;;;;;;;15.27;7.68;;;;;;;-16.01;85.01;103282.66;10436797;28;20044;-61
2023/12/07 21:42:36;;;;;;;15.00;7.72;;;;;;;-16.05;85.54;103277.53;10434697;28;20080;-61
2023/12/07 21:47:39;;;;;;;11.93;6.40;;;;;;;-16.03;84.61;103275.72;10448351;28;20037;-61
2023/12/07 21:52:41;;;;;;;12.70;5.82;;;;;;;-16.08;84.82;103286.38;10432335;28;20037;-61
2023/12/07 21:57:44;;;;;;;13.05;6.97;;;;;;;-15.99;85.04;103278.22;10437978;28;20037;-61
2023/12/07 22:02:47;;;;;;;13.63;7.15;;;;;;;-16.14;84.51;103278.66;10439314;28;20049;-61
2023/12/07 22:07:50;;;;;;;14.70;7.35;;;;;;;-16.07;85.36;103282.00;10440040;28;20045;-61
2023/12/07 22:12:52;;;;;;;16.55;8.55;;;;;;;-16.15;84.85;103287.44;10437621;28;20045;-61
2023/12/07 22:17:54;;;;;;;15.98;7.65;;;;;;;-16.19;84.70;103281.44;10442491;28;20505;-62
2023/12/07 22:22:57;;;;;;;14.68;7.20;;;;;;;-16.18;84.76;103290.19;10447091;28;20037;-61
2023/12/07 22:27:59;;;;;;;13.43;7.97;;;;;;;-16.19;84.34;103272.69;10446747;28;20037;-61
2023/12/07 22:33:02;;;;;;;13.18;6.95;;;;;;;-16.32;84.47;103269.53;10443798;28;20030;-61
2023/12/07 22:38:04;;;;;;;14.98;7.05;;;;;;;-16.24;84.81;103267.56;10447117;28;20045;-61
2023/12/07 22:43:07;;;;;;;13.77;7.43;;;;;;;-16.29;85.26;103265.97;10447045;28;20046;-61